Portada
METAR-TAF:

METAR-TAF

Aeroports :

Nagasaki, Japó

latitud: 32-55N, longitud: 129-55E, altitud: 2 m

Observació

L'informe es va fer fa 32 minuts, a les 07:00 UTC
Vent 10 kt del Nord/Nord-Oest
Temperatura 17°C
Humitat 72%
Pressió 1014 hPa
Visibilitat 10 km o més
Escasses núvols a una alçada de 2000 ft
Cel ennuvolat a una alçada de 5000 ft
Cel ennuvolat

METAR: RJFU 050700Z 34010KT 9999 FEW020 BKN050 BKN/// 17/12 Q1014

Hora: 16:32 (07:32 UTC)

Pronòstic

L'informe es va fer fa 2 hores i 26 minuts, a les 05:06 UTC
Pronòstic vàlid del 05 a les 06 UTC al 06 a les 12 UTC
Vent 11 kt del Nord
Visibilitat 10 km o més
Escasses núvols a una alçada de 2000 ft
Núvols disperses a una alçada de 3000 ft

TAF: RJFU 050506Z 0506/0612 36011KT 9999 FEW020 SCT030

Observacions i pronòstics meteorològics de més de 4000 aeroports (METAR i TAF).

Les estacions disponibles són els punts grocs i vermells al mapa.

Posi el ratolí al punt desitjat per veure el nom de l'estació.

Feu clic per veure les observacions i els pronòstics meteorològics.

Per canviar el mapa: feu clic els botons verds amb una creu de color negre per apropar; al botó verd amb un guió per allunyar la imatge; o en les fletxes verdes per a mapes adjacents.


METAR-TAF: